Time;durP1;ratioP1;P1;durP2;ratioP2;P2;SDS_P1;SDS_P2;PMS_P1;PMS_P2;Temp;Humidity;BMP_temperature;BMP_pressure;BME280_temperature;BME280_humidity;BME280_pressure;Samples;Min_cycle;Max_cycle;Signal;HPM_P1;HPM_P2
2021/09/29 00:01:38;;;;;;;25.38;17.65;;;17.20;73.00;;;16.77;58.19;95264.25;5048952;28;20232;-80
2021/09/29 00:04:06;;;;;;;23.73;16.70;;;17.10;73.00;;;16.75;58.47;95262.84;5032361;28;20289;-80
2021/09/29 00:06:33;;;;;;;21.67;16.50;;;17.20;73.20;;;16.68;58.08;95257.59;5015860;28;20274;-80
2021/09/29 00:09:01;;;;;;;24.13;16.35;;;17.10;73.10;;;16.62;58.77;95256.69;5022404;28;20245;-81
2021/09/29 00:11:28;;;;;;;22.73;16.88;;;17.00;73.20;;;16.56;58.35;95257.53;5035575;28;20230;-81
2021/09/29 00:13:55;;;;;;;25.38;15.93;;;16.90;73.10;;;16.50;58.08;95263.72;5052220;28;20195;-81
2021/09/29 00:16:22;;;;;;;23.80;15.60;;;16.90;73.20;;;16.44;58.42;95254.81;5050609;28;20750;-81
2021/09/29 00:18:50;;;;;;;21.05;15.00;;;16.90;73.20;;;16.42;58.39;95256.06;5018806;28;20300;-79
2021/09/29 00:21:17;;;;;;;26.52;17.13;;;16.70;73.00;;;16.31;58.51;95250.47;5051925;28;20704;-80
2021/09/29 00:23:46;;;;;;;23.25;16.73;;;16.70;73.20;;;16.32;58.04;95248.66;5034283;28;20214;-80
2021/09/29 00:26:14;;;;;;;20.10;15.68;;;16.70;73.20;;;16.27;58.67;95251.13;5019279;28;20269;-80
2021/09/29 00:28:42;;;;;;;23.02;15.60;;;16.60;73.20;;;16.21;58.47;95247.53;5035033;28;20242;-81
2021/09/29 00:34:12;;;;;;;22.20;14.60;;;16.60;73.20;;;16.11;57.99;95252.50;5044666;28;20212;-80
2021/09/29 00:36:45;;;;;;;20.30;14.15;;;16.40;73.20;;;16.04;58.23;95242.00;5070108;28;20262;-80
2021/09/29 00:39:13;;;;;;;22.17;15.90;;;16.40;74.20;;;15.99;58.74;95239.16;5066160;28;20219;-80
2021/09/29 00:41:45;;;;;;;22.75;15.93;;;16.40;73.20;;;15.92;58.54;95236.59;5018243;28;20211;-81
2021/09/29 00:44:12;;;;;;;25.52;15.82;;;16.30;73.20;;;15.89;58.23;95239.66;5053278;28;20188;-80
2021/09/29 00:46:40;;;;;;;21.77;15.85;;;16.30;73.30;;;15.86;58.61;95232.16;5034380;28;20219;-79
2021/09/29 00:49:07;;;;;;;26.08;16.45;;;16.20;73.20;;;15.83;58.48;95230.78;5051500;28;20215;-80
2021/09/29 00:51:34;;;;;;;24.83;16.25;;;16.20;73.40;;;15.80;58.39;95233.81;5052010;28;20323;-80
2021/09/29 00:54:04;;;;;;;20.58;15.77;;;16.10;73.30;;;15.77;58.60;95230.78;5051044;28;20195;-80
2021/09/29 00:56:32;;;;;;;21.15;15.40;;;16.10;73.40;;;15.77;58.43;95228.13;5018443;28;20215;-80
2021/09/29 00:59:00;;;;;;;21.90;14.40;;;16.10;73.50;;;15.76;58.94;95221.22;5035473;28;20255;-81
2021/09/29 01:01:27;;;;;;;23.50;16.00;;;16.10;73.50;;;15.74;58.73;95221.44;5018107;28;20305;-80
2021/09/29 01:03:56;;;;;;;20.75;14.77;;;16.00;73.50;;;15.74;58.78;95210.06;5051615;28;20214;-79
2021/09/29 01:06:40;;;;;;;23.70;15.43;;;16.10;73.50;;;15.69;58.39;95200.94;5034536;28;20298;-81
2021/09/29 01:09:24;;;;;;;23.92;15.55;;;16.00;73.60;;;15.67;58.52;95208.31;5034092;28;20592;-80
2021/09/29 01:11:59;;;;;;;22.63;14.52;;;15.90;73.80;;;15.66;58.63;95200.56;5050498;28;20226;-79
2021/09/29 01:14:46;;;;;;;22.63;15.30;;;16.00;73.70;;;15.63;58.60;95203.66;5034651;28;20202;-80
2021/09/29 01:17:17;;;;;;;23.73;15.27;;;16.00;73.80;;;15.59;58.88;95190.06;5032836;28;20585;-80
2021/09/29 01:20:05;;;;;;;21.10;15.45;;;15.90;73.60;;;15.56;58.54;95194.97;5034484;28;20745;-80
2021/09/29 01:22:41;;;;;;;20.20;13.98;;;15.90;73.70;;;15.52;58.53;95191.94;5034243;28;20223;-80
2021/09/29 01:25:28;;;;;;;23.05;15.55;;;15.90;73.80;;;15.46;58.50;95180.38;5034800;28;20241;-80
2021/09/29 01:27:57;;;;;;;20.42;14.27;;;15.80;73.70;;;15.42;58.85;95181.06;5016664;28;20600;-79
2021/09/29 01:30:25;;;;;;;22.60;14.85;;;15.70;73.40;;;15.37;58.69;95177.19;5033749;28;20227;-80
2021/09/29 01:32:54;;;;;;;21.70;15.75;;;15.80;73.40;;;15.33;58.71;95169.91;5050918;28;20199;-81
2021/09/29 01:35:22;;;;;;;21.67;15.60;;;15.70;73.50;;;15.25;58.71;95165.72;5034361;28;20721;-79
2021/09/29 01:37:49;;;;;;;22.10;15.00;;;15.60;73.40;;;15.24;58.75;95165.94;5030427;28;20228;-80
2021/09/29 01:40:17;;;;;;;21.00;14.75;;;15.60;73.40;;;15.15;58.89;95155.63;5030804;28;20219;-81
2021/09/29 01:42:44;;;;;;;21.08;14.88;;;15.50;73.40;;;15.12;59.13;95155.25;5014605;28;20200;-81
2021/09/29 01:45:12;;;;;;;24.27;16.55;;;15.50;73.50;;;15.07;59.03;95150.59;5014881;28;20712;-80
2021/09/29 01:47:39;;;;;;;22.90;15.48;;;15.50;73.60;;;15.01;58.95;95149.63;5030353;28;20243;-80
2021/09/29 01:50:11;;;;;;;22.00;15.82;;;15.40;73.60;;;14.96;59.32;95153.94;5050895;28;20625;-80
2021/09/29 01:52:43;;;;;;;23.20;15.27;;;15.40;73.90;;;14.94;59.23;95154.16;5033961;28;20587;-80
2021/09/29 01:55:17;;;;;;;21.98;16.17;;;15.30;73.90;;;14.91;59.22;95153.75;5067709;28;20199;-80
2021/09/29 01:57:50;;;;;;;23.67;17.15;;;15.30;74.00;;;14.85;59.45;95147.50;5047280;28;20216;-79
2021/09/29 02:00:17;;;;;;;23.85;16.27;;;15.30;73.80;;;14.83;59.26;95137.16;5039631;28;20215;-81
2021/09/29 02:02:45;;;;;;;24.08;16.88;;;15.20;73.70;;;14.80;59.56;95142.03;5033070;28;20279;-80
2021/09/29 02:05:13;;;;;;;25.27;16.95;;;15.20;73.90;;;14.77;59.47;95140.63;5051130;28;20282;-79
2021/09/29 02:07:41;;;;;;;25.88;16.83;;;15.10;73.90;;;14.75;59.39;95131.31;5049795;28;20218;-81
2021/09/29 02:10:09;;;;;;;23.98;17.05;;;15.20;74.10;;;14.70;59.70;95130.09;5050878;28;20201;-80
2021/09/29 02:12:36;;;;;;;25.25;17.75;;;15.10;74.10;;;14.69;59.81;95130.31;5017654;28;20644;-80
2021/09/29 02:15:05;;;;;;;24.30;17.33;;;15.10;74.20;;;14.68;59.88;95131.34;5051005;28;20199;-80
2021/09/29 02:17:33;;;;;;;22.70;16.52;;;15.00;74.20;;;14.65;59.78;95140.50;5046817;28;20216;-80
2021/09/29 02:20:00;;;;;;;24.35;16.92;;;15.00;74.20;;;14.64;59.91;95146.75;5032103;28;20223;-80
2021/09/29 02:22:27;;;;;;;21.40;16.27;;;15.00;74.30;;;14.62;59.79;95140.88;5050459;28;20698;-79
2021/09/29 02:24:54;;;;;;;23.88;16.90;;;15.00;74.30;;;14.61;60.40;95143.72;5049963;28;20191;-79
2021/09/29 02:27:22;;;;;;;24.30;16.65;;;15.00;74.30;;;14.55;59.98;95134.84;5029443;28;20220;-78
2021/09/29 02:29:49;;;;;;;24.88;17.05;;;15.00;74.40;;;14.56;59.95;95137.25;5047608;28;20279;-79
2021/09/29 02:32:16;;;;;;;26.23;17.58;;;14.90;74.30;;;14.57;59.84;95138.06;5016865;28;20223;-79
2021/09/29 02:34:43;;;;;;;24.30;15.85;;;15.00;74.50;;;14.54;60.13;95130.59;5013576;28;20281;-79
2021/09/29 02:37:11;;;;;;;20.67;16.10;;;14.90;75.20;;;14.53;60.20;95131.59;5032329;28;20269;-79
2021/09/29 02:39:38;;;;;;;22.40;17.08;;;14.90;74.40;;;14.50;60.00;95127.56;5034231;28;20269;-80
2021/09/29 02:42:05;;;;;;;25.95;16.48;;;14.90;74.40;;;14.51;60.28;95121.25;5036913;28;20218;-79
2021/09/29 02:44:33;;;;;;;22.75;16.00;;;14.80;74.40;;;14.50;60.06;95114.34;5018909;28;20188;-78
2021/09/29 02:47:01;;;;;;;23.48;16.35;;;14.90;74.60;;;14.48;60.21;95110.31;5035586;28;20288;-79
2021/09/29 02:49:28;;;;;;;23.73;15.85;;;14.90;74.60;;;14.49;60.14;95110.09;5052159;28;20269;-79
2021/09/29 02:51:55;;;;;;;23.45;15.82;;;14.80;74.50;;;14.44;60.33;95099.38;5050403;28;20226;-80
2021/09/29 02:54:23;;;;;;;22.13;15.57;;;14.90;74.60;;;14.48;60.22;95103.19;5052081;28;20350;-80
2021/09/29 02:56:50;;;;;;;19.13;14.30;;;14.80;74.60;;;14.48;60.48;95116.38;5052080;28;20219;-79
2021/09/29 02:59:17;;;;;;;20.45;15.10;;;14.80;74.50;;;14.46;60.01;95107.06;5035685;28;20246;-80
2021/09/29 03:01:45;;;;;;;24.27;14.65;;;14.80;74.50;;;14.43;60.34;95105.66;5035758;28;20265;-81
2021/09/29 03:04:13;;;;;;;25.27;14.85;;;14.80;74.60;;;14.36;60.00;95096.97;5035779;28;20202;-79
2021/09/29 03:06:40;;;;;;;21.98;14.57;;;14.80;74.50;;;14.40;60.26;95106.06;5052810;28;20264;-79
2021/09/29 03:09:07;;;;;;;19.70;14.23;;;14.70;74.40;;;14.39;59.71;95104.44;5028113;28;20238;-80
2021/09/29 03:11:35;;;;;;;20.42;13.93;;;14.70;74.40;;;14.35;60.35;95097.97;5051927;28;20659;-78
2021/09/29 03:14:03;;;;;;;19.38;13.88;;;14.70;74.40;;;14.35;60.16;95105.91;5050758;28;20587;-79
2021/09/29 03:16:30;;;;;;;21.13;14.48;;;14.70;74.40;;;14.35;59.97;95100.63;5050458;28;20246;-79
2021/09/29 03:18:58;;;;;;;20.38;14.07;;;14.70;74.40;;;14.34;59.90;95101.63;5034056;28;20215;-79
2021/09/29 03:21:26;;;;;;;21.63;14.00;;;14.60;74.40;;;14.33;60.14;95102.66;5017931;28;20208;-79
2021/09/29 03:23:53;;;;;;;21.02;14.88;;;14.70;74.40;;;14.34;60.26;95106.91;5033868;28;20223;-81
2021/09/29 03:26:20;;;;;;;20.45;14.35;;;14.70;74.60;;;14.31;60.24;95102.88;5050987;28;20266;-80
2021/09/29 03:28:48;;;;;;;22.13;14.75;;;14.70;75.40;;;14.35;60.06;95103.25;5020181;28;20199;-80
2021/09/29 03:31:15;;;;;;;21.05;14.65;;;14.60;74.60;;;14.36;60.58;95096.97;5032803;28;20219;-80
2021/09/29 03:33:42;;;;;;;21.48;13.93;;;14.60;74.70;;;14.36;60.48;95099.59;5049764;28;20200;-81
2021/09/29 03:36:09;;;;;;;22.67;15.45;;;14.60;74.70;;;14.37;60.25;95099.38;5033041;28;20262;-80
2021/09/29 03:38:37;;;;;;;23.83;16.27;;;14.60;74.70;;;14.37;60.25;95095.94;5018868;28;20238;-80
2021/09/29 03:41:05;;;;;;;24.17;15.23;;;14.60;74.70;;;14.39;60.13;95097.34;5033384;28;20224;-81
2021/09/29 03:43:32;;;;;;;21.20;14.30;;;14.70;74.70;;;14.40;60.17;95098.97;5032719;28;20202;-80
2021/09/29 03:45:59;;;;;;;22.63;13.30;;;14.60;74.70;;;14.43;60.05;95096.91;5054450;28;20681;-80
2021/09/29 03:48:27;;;;;;;20.65;14.20;;;14.70;74.70;;;14.43;59.72;95096.91;5015782;28;20218;-81
2021/09/29 03:50:54;;;;;;;19.05;13.65;;;14.70;74.70;;;14.43;60.00;95089.00;5032267;28;20212;-81
2021/09/29 03:53:21;;;;;;;23.33;13.82;;;14.70;74.70;;;14.42;60.18;95088.22;5031194;28;20256;-80
2021/09/29 03:55:49;;;;;;;19.60;13.48;;;14.70;74.60;;;14.41;59.87;95079.50;5032939;28;20251;-80
2021/09/29 03:58:18;;;;;;;17.50;12.63;;;14.70;74.60;;;14.44;60.15;95086.19;5027547;28;20601;-81
2021/09/29 04:00:46;;;;;;;17.02;12.50;;;14.80;74.60;;;14.43;59.87;95094.28;5035886;28;20258;-81
2021/09/29 04:03:13;;;;;;;17.73;12.77;;;14.70;74.40;;;14.40;60.28;95088.44;5052677;28;20213;-80
2021/09/29 04:05:40;;;;;;;19.00;13.13;;;14.70;74.40;;;14.41;59.72;95092.69;5052030;28;20239;-81
2021/09/29 04:08:08;;;;;;;16.65;12.57;;;14.70;74.30;;;14.41;59.87;95100.59;5038657;28;20570;-80
2021/09/29 04:10:35;;;;;;;18.55;12.60;;;14.70;74.30;;;14.35;59.71;95092.72;5015973;28;20613;-80
2021/09/29 04:13:02;;;;;;;16.45;12.13;;;14.70;74.30;;;14.39;59.78;95097.34;5018468;28;20274;-81
2021/09/29 04:15:30;;;;;;;21.10;11.85;;;14.70;74.30;;;14.37;59.73;95106.50;5035621;28;20199;-80
2021/09/29 04:17:57;;;;;;;18.33;12.40;;;14.70;74.20;;;14.33;59.68;95103.47;5035107;28;20195;-81
2021/09/29 04:20:25;;;;;;;19.85;12.45;;;14.60;74.10;;;14.32;59.83;95095.75;5052120;28;20239;-81
2021/09/29 04:22:53;;;;;;;16.85;11.40;;;14.60;74.20;;;14.27;59.71;95087.66;5035497;28;20284;-81
2021/09/29 04:25:21;;;;;;;20.58;10.73;;;14.60;74.20;;;14.24;59.50;95095.00;5036076;28;20219;-80
2021/09/29 04:27:49;;;;;;;17.15;10.95;;;14.60;74.20;;;14.22;59.54;95091.75;5018851;28;20672;-81
2021/09/29 04:30:16;;;;;;;17.05;11.82;;;14.50;74.10;;;14.20;59.80;95091.16;5051745;28;20223;-80
2021/09/29 04:32:44;;;;;;;16.98;11.13;;;14.50;74.20;;;14.18;59.59;95089.75;5047920;28;20619;-80
2021/09/29 04:35:12;;;;;;;16.25;11.95;;;14.50;74.20;;;14.17;59.62;95090.75;5032066;28;20231;-80
2021/09/29 04:37:39;;;;;;;16.23;11.68;;;14.50;74.20;;;14.13;59.79;95092.19;5034187;28;20716;-80
2021/09/29 04:40:07;;;;;;;15.57;11.48;;;14.50;75.00;;;14.04;59.91;95083.72;5048237;28;20681;-81
2021/09/29 04:42:34;;;;;;;16.10;11.20;;;14.50;74.30;;;14.05;59.75;95095.91;5015795;28;20295;-80
2021/09/29 04:45:02;;;;;;;17.10;11.38;;;14.40;74.10;;;14.00;60.01;95091.25;5015464;28;20204;-80
2021/09/29 04:47:29;;;;;;;16.73;12.48;;;14.40;74.20;;;14.01;59.74;95099.94;5015305;28;20207;-80
2021/09/29 04:49:57;;;;;;;18.05;11.20;;;14.40;74.30;;;13.99;59.94;95101.97;5050026;28;20195;-81
2021/09/29 04:52:26;;;;;;;16.45;11.55;;;14.40;74.30;;;13.97;60.05;95096.91;5051363;28;20216;-79
2021/09/29 04:54:55;;;;;;;15.75;11.27;;;14.30;74.30;;;13.96;60.07;95102.41;5050788;28;20198;-80
2021/09/29 04:57:22;;;;;;;17.45;11.98;;;14.30;74.30;;;13.92;59.98;95104.66;5034566;28;20245;-79
2021/09/29 04:59:49;;;;;;;20.33;13.13;;;14.30;74.40;;;13.88;60.22;95101.63;5034860;28;20610;-80
2021/09/29 05:02:18;;;;;;;20.05;12.30;;;14.30;74.40;;;13.89;60.33;95112.97;5032339;28;20693;-79
2021/09/29 05:04:46;;;;;;;20.98;12.80;;;14.20;74.60;;;13.86;59.93;95110.75;5033695;28;20567;-79
2021/09/29 05:07:17;;;;;;;19.23;12.60;;;14.20;74.60;;;13.86;60.04;95113.38;5034852;28;20769;-79
2021/09/29 05:09:45;;;;;;;15.68;11.70;;;14.20;74.80;;;13.84;60.08;95112.78;5034737;28;20204;-79
2021/09/29 05:12:31;;;;;;;20.23;11.90;;;14.20;74.60;;;13.83;60.24;95116.44;5034552;28;20215;-78
2021/09/29 05:14:59;;;;;;;17.90;11.13;;;14.20;74.80;;;13.82;60.20;95118.25;5051211;28;20207;-80
2021/09/29 05:17:28;;;;;;;17.42;11.43;;;14.10;74.50;;;13.79;60.15;95113.38;5034537;28;20222;-80
2021/09/29 05:19:55;;;;;;;18.70;11.90;;;14.10;74.60;;;13.82;60.30;95113.00;5051076;28;20290;-79
2021/09/29 05:22:22;;;;;;;21.13;13.10;;;14.10;74.70;;;13.83;60.38;95113.78;5034509;28;20246;-79
2021/09/29 05:24:49;;;;;;;15.18;11.40;;;14.20;74.80;;;13.83;60.30;95121.69;5018295;28;20207;-80
2021/09/29 05:27:17;;;;;;;15.77;11.30;;;14.20;74.80;;;13.86;60.25;95132.66;5034559;28;20223;-80
2021/09/29 05:29:48;;;;;;;17.60;12.00;;;14.10;74.70;;;13.87;60.41;95131.63;5034579;28;20235;-79
2021/09/29 05:32:15;;;;;;;16.65;11.27;;;14.10;74.80;;;13.89;60.26;95132.25;5034447;28;20641;-79
2021/09/29 05:34:43;;;;;;;19.10;12.90;;;14.20;74.80;;;13.90;60.12;95131.22;5034486;28;20213;-81
2021/09/29 05:37:10;;;;;;;17.15;11.98;;;14.10;74.80;;;13.94;60.14;95123.72;5034533;28;20277;-81
2021/09/29 05:39:37;;;;;;;16.75;11.65;;;14.20;74.90;;;13.96;60.16;95129.56;5034656;28;20321;-81
2021/09/29 05:42:04;;;;;;;18.20;11.70;;;14.30;75.00;;;13.97;60.16;95119.84;5050787;28;20713;-80
2021/09/29 05:44:33;;;;;;;17.83;11.32;;;14.20;75.00;;;14.03;60.36;95129.56;5050763;28;20683;-80
2021/09/29 05:47:01;;;;;;;16.00;11.48;;;14.20;75.00;;;14.05;60.18;95133.63;5050737;28;20216;-80
2021/09/29 05:49:28;;;;;;;17.00;11.57;;;14.30;75.00;;;14.10;60.24;95135.63;5050865;28;20286;-80
2021/09/29 05:51:55;;;;;;;16.08;11.18;;;14.30;75.00;;;14.14;60.02;95130.75;5050697;28;20227;-80
2021/09/29 05:54:23;;;;;;;14.77;10.98;;;14.30;75.80;;;14.20;59.88;95124.63;5017643;28;20241;-80
2021/09/29 05:56:50;;;;;;;17.58;11.35;;;14.30;75.00;;;14.24;60.15;95131.09;5034569;28;20723;-80
2021/09/29 05:59:17;;;;;;;18.33;11.93;;;14.40;75.00;;;14.28;60.11;95126.22;5050839;28;20249;-80
2021/09/29 06:01:45;;;;;;;17.23;11.60;;;14.50;75.00;;;14.34;59.95;95131.50;5049111;28;20301;-78
2021/09/29 06:04:12;;;;;;;17.65;10.95;;;14.50;75.00;;;14.39;59.90;95120.28;5033135;28;20546;-80
2021/09/29 06:06:41;;;;;;;15.05;10.90;;;14.50;75.00;;;14.43;60.09;95124.13;5048256;28;20235;-79
2021/09/29 06:09:08;;;;;;;13.63;10.52;;;14.60;75.00;;;14.53;59.87;95126.31;5016338;28;20589;-79
2021/09/29 06:11:35;;;;;;;14.68;10.45;;;14.60;75.00;;;14.58;60.16;95131.78;5050741;28;20215;-80
2021/09/29 06:14:04;;;;;;;22.52;17.88;;;14.60;75.00;;;14.64;59.67;95136.19;5035277;28;20191;-80
2021/09/29 06:16:36;;;;;;;17.42;12.93;;;14.70;75.00;;;14.69;59.78;95148.81;5037083;28;20307;-81
2021/09/29 06:19:04;;;;;;;14.18;11.10;;;14.70;74.80;;;14.72;59.57;95143.09;5021038;28;20203;-80
2021/09/29 06:21:32;;;;;;;15.65;11.50;;;14.90;74.80;;;14.77;59.73;95145.09;5020898;28;20211;-80
2021/09/29 06:23:59;;;;;;;14.82;11.23;;;14.80;74.70;;;14.81;59.91;95156.88;5037433;28;20191;-81
2021/09/29 06:26:26;;;;;;;15.77;12.05;;;14.90;74.70;;;14.84;59.43;95161.72;5055345;28;20269;-79
2021/09/29 06:28:54;;;;;;;15.35;11.60;;;14.90;74.70;;;14.89;59.34;95154.78;5054166;28;20222;-79
2021/09/29 06:31:22;;;;;;;13.52;10.40;;;15.10;74.70;;;14.94;59.81;95155.97;5054115;28;20218;-80
2021/09/29 06:33:49;;;;;;;12.68;9.82;;;15.00;74.70;;;15.01;59.38;95159.38;5037483;28;20199;-79
2021/09/29 06:36:17;;;;;;;14.40;10.45;;;15.10;74.90;;;15.07;59.61;95171.72;5037454;28;20661;-80
2021/09/29 06:38:45;;;;;;;13.73;9.88;;;15.10;74.80;;;15.13;59.52;95176.16;5087146;28;20580;-80
2021/09/29 06:41:12;;;;;;;13.90;10.35;;;15.10;74.80;;;15.18;59.44;95165.78;5054036;28;20251;-79
2021/09/29 06:43:39;;;;;;;12.82;9.80;;;15.20;74.80;;;15.28;59.15;95175.88;5036167;28;20199;-80
2021/09/29 06:46:06;;;;;;;14.65;10.20;;;15.30;74.80;;;15.37;59.46;95173.75;5035243;28;20254;-79
2021/09/29 06:48:34;;;;;;;14.23;10.98;;;15.30;74.70;;;15.44;59.40;95181.63;5035478;28;20620;-80
2021/09/29 06:51:01;;;;;;;20.92;13.23;;;15.40;74.60;;;15.52;58.93;95194.59;5052673;28;20200;-80
2021/09/29 06:53:28;;;;;;;22.75;15.10;;;15.50;74.50;;;15.55;58.89;95193.34;5069620;28;20303;-79
2021/09/29 06:55:55;;;;;;;22.02;14.63;;;15.50;74.40;;;15.57;58.77;95175.44;5053384;28;20216;-79
2021/09/29 06:58:22;;;;;;;18.92;12.73;;;15.60;74.40;;;15.67;58.89;95192.44;5052237;28;20196;-80
2021/09/29 07:00:50;;;;;;;14.80;11.07;;;15.60;75.20;;;15.70;58.95;95193.84;5051574;28;20233;-79
2021/09/29 07:03:20;;;;;;;13.77;9.70;;;15.70;74.30;;;15.73;58.75;95182.81;5068902;28;20211;-79
2021/09/29 07:05:48;;;;;;;14.05;9.80;;;15.70;74.20;;;15.73;58.05;95185.44;5053683;28;20215;-79
2021/09/29 07:08:16;;;;;;;13.93;9.88;;;15.80;73.80;;;15.72;58.32;95197.06;5052926;28;20669;-79
2021/09/29 07:10:43;;;;;;;12.75;9.13;;;15.80;73.70;;;15.74;58.03;95199.50;5070064;28;20268;-79
2021/09/29 07:13:11;;;;;;;11.10;8.57;;;15.90;73.70;;;15.75;58.60;95211.69;5053302;28;20199;-78
2021/09/29 07:15:39;;;;;;;15.20;8.73;;;15.80;73.60;;;15.75;58.31;95214.34;5050860;28;20234;-79
2021/09/29 07:18:08;;;;;;;11.88;9.50;;;15.90;73.70;;;15.77;58.25;95212.28;5068354;28;20724;-79
2021/09/29 07:20:36;;;;;;;13.80;9.27;;;15.90;73.80;;;15.81;58.27;95224.06;5051778;28;20787;-79
2021/09/29 07:23:07;;;;;;;14.27;10.43;;;15.90;73.60;;;15.81;58.15;95211.63;5052203;28;20337;-80
2021/09/29 07:25:34;;;;;;;14.35;10.38;;;15.90;73.40;;;15.82;58.31;95225.69;5051125;28;20191;-80
2021/09/29 07:28:02;;;;;;;16.45;10.68;;;15.90;73.30;;;15.84;58.00;95215.69;5052674;28;20290;-80
2021/09/29 07:30:31;;;;;;;13.95;9.82;;;15.90;73.30;;;15.88;58.56;95216.06;5019879;28;20203;-81
2021/09/29 07:33:02;;;;;;;17.10;9.60;;;16.00;73.60;;;15.99;58.34;95215.34;5054116;28;20222;-80
2021/09/29 07:35:32;;;;;;;13.55;9.50;;;16.00;73.60;;;16.11;57.90;95204.88;5053101;28;20192;-80
2021/09/29 07:38:01;;;;;;;14.50;10.10;;;16.10;73.60;;;16.20;57.98;95200.09;5052025;28;20202;-80
2021/09/29 07:40:30;;;;;;;14.93;10.13;;;16.10;74.60;;;16.29;57.54;95201.44;5034515;28;20227;-79
2021/09/29 07:42:58;;;;;;;12.90;8.88;;;16.20;73.40;;;16.43;57.67;95207.38;5050293;28;20194;-79
2021/09/29 07:45:27;;;;;;;13.23;9.23;;;16.30;73.50;;;16.55;57.41;95202.97;5051663;28;20199;-78
2021/09/29 07:47:54;;;;;;;14.77;8.65;;;16.40;73.50;;;16.72;57.42;95197.06;5035452;28;20278;-78
2021/09/29 07:50:22;;;;;;;10.82;7.97;;;16.50;73.60;;;16.89;57.59;95194.59;5035844;28;20196;-79
2021/09/29 07:52:51;;;;;;;14.32;8.63;;;16.60;73.80;;;17.06;57.22;95192.94;5035960;28;20195;-78
2021/09/29 07:55:19;;;;;;;11.63;8.65;;;16.70;73.60;;;17.26;57.08;95202.50;5052420;28;20558;-79
2021/09/29 07:57:47;;;;;;;12.50;9.60;;;16.80;73.60;;;17.44;57.16;95199.75;5069016;28;20191;-78
2021/09/29 08:00:19;;;;;;;14.32;10.07;;;17.00;73.50;;;17.66;56.65;95201.84;5036202;28;20222;-78
2021/09/29 08:02:46;;;;;;;15.23;9.60;;;17.10;73.20;;;17.82;56.65;95200.38;5052638;28;20285;-78
2021/09/29 08:05:15;;;;;;;12.45;9.35;;;17.30;73.20;;;18.00;56.78;95203.97;5051679;28;20221;-79
2021/09/29 08:07:50;;;;;;;11.35;8.77;;;17.50;73.10;;;18.17;55.99;95193.47;5052344;28;20623;-79
2021/09/29 08:10:19;;;;;;;11.50;8.48;;;17.70;73.10;;;18.33;56.21;95195.41;5035836;28;20230;-79
2021/09/29 08:12:51;;;;;;;12.25;8.30;;;17.80;72.90;;;18.48;56.24;95181.66;5036292;28;20672;-79
2021/09/29 08:15:18;;;;;;;10.75;7.90;;;18.00;72.90;;;18.60;55.76;95172.84;5052259;28;20649;-79
2021/09/29 08:17:46;;;;;;;10.95;7.53;;;18.20;72.90;;;18.75;55.40;95183.75;5052120;28;20191;-79
2021/09/29 08:20:18;;;;;;;9.38;7.10;;;18.30;72.70;;;18.88;55.44;95187.97;5052320;28;20585;-79
2021/09/29 08:22:49;;;;;;;10.32;7.32;;;18.40;72.50;;;18.98;55.34;95180.25;5052342;28;20257;-79
2021/09/29 08:30:50;;;;;;;11.80;7.75;;;18.70;71.90;;;19.17;55.16;95190.66;5053233;28;20211;-79
2021/09/29 08:38:41;;;;;;;10.00;7.68;;;19.00;71.60;;;19.42;54.75;95182.31;5035539;28;20551;-78
2021/09/29 08:41:21;;;;;;;8.70;7.32;;;19.20;71.80;;;19.57;54.55;95183.63;5053135;28;20719;-78
2021/09/29 08:43:58;;;;;;;9.68;7.75;;;19.20;71.30;;;19.66;54.11;95180.31;5049932;28;20191;-79
2021/09/29 08:46:32;;;;;;;12.73;8.40;;;19.30;71.40;;;19.71;52.81;95184.09;5048604;28;20273;-79
2021/09/29 08:49:07;;;;;;;12.38;8.90;;;19.40;70.60;;;19.71;53.41;95181.44;5033695;28;20217;-80
2021/09/29 08:57:18;;;;;;;11.77;8.20;;;19.50;70.20;;;19.81;53.02;95194.88;5067598;28;20272;-80
2021/09/29 09:16:36;;;;;;;14.45;9.27;;;19.70;70.30;;;19.71;53.48;95178.78;5053655;28;20255;-79
2021/09/29 09:19:10;;;;;;;11.73;9.57;;;19.70;70.50;;;19.68;53.29;95183.53;5034550;28;20661;-80
2021/09/29 09:21:52;;;;;;;17.02;9.88;;;19.70;70.50;;;19.73;54.01;95182.00;5052211;28;20223;-80
2021/09/29 09:24:25;;;;;;;14.85;10.63;;;19.70;70.50;;;19.78;53.37;95177.56;5067832;28;20194;-79
2021/09/29 09:27:11;;;;;;;11.00;8.95;;;19.70;70.70;;;19.85;54.03;95180.09;5051068;28;20566;-80
2021/09/29 09:29:51;;;;;;;12.02;8.80;;;19.70;70.70;;;19.99;54.04;95183.22;5034771;28;20245;-80
2021/09/29 09:32:24;;;;;;;12.45;9.30;;;19.80;70.90;;;20.04;53.52;95191.25;5050966;28;20210;-79
2021/09/29 09:35:11;;;;;;;11.90;9.07;;;19.90;70.60;;;20.08;53.47;95188.91;5035062;28;20286;-80
2021/09/29 09:37:41;;;;;;;12.88;9.10;;;19.90;70.60;;;20.15;53.57;95185.03;5051231;28;20268;-80
2021/09/29 09:40:16;;;;;;;12.25;9.77;;;19.90;70.90;;;20.32;53.58;95189.50;5050822;28;20199;-80
2021/09/29 09:42:48;;;;;;;12.52;10.25;;;20.00;71.00;;;20.44;52.98;95195.53;5034350;28;20188;-79
2021/09/29 09:45:18;;;;;;;14.20;10.60;;;20.10;71.00;;;20.56;53.36;95183.97;5050986;28;20596;-79
2021/09/29 09:47:46;;;;;;;11.95;9.13;;;20.20;71.00;;;20.66;53.30;95175.28;5034889;28;20215;-80
2021/09/29 09:50:26;;;;;;;12.43;9.25;;;20.30;71.00;;;20.77;54.02;95180.50;5071526;28;20196;-79
2021/09/29 09:52:53;;;;;;;19.77;12.75;;;20.40;71.00;;;20.85;52.71;95178.44;5071384;28;20210;-79
2021/09/29 09:55:23;;;;;;;14.88;11.57;;;20.50;70.90;;;20.90;53.35;95183.84;5054263;28;20179;-79
2021/09/29 09:57:56;;;;;;;15.27;11.30;;;20.60;70.90;;;20.93;53.00;95183.34;5054866;28;20567;-79
2021/09/29 10:00:26;;;;;;;13.20;11.30;;;20.70;70.70;;;21.02;53.14;95186.34;5030063;28;20224;-79
2021/09/29 10:02:55;;;;;;;15.82;12.82;;;20.70;70.90;;;21.11;53.75;95182.19;5032794;28;20203;-79
2021/09/29 10:05:26;;;;;;;15.02;12.75;;;20.80;71.10;;;21.23;53.47;95188.16;5054053;28;20202;-79
2021/09/29 10:07:54;;;;;;;18.17;13.30;;;20.80;71.00;;;21.25;53.44;95185.25;5035327;28;20652;-78
2021/09/29 10:10:37;;;;;;;18.85;14.50;;;20.90;71.00;;;21.20;53.12;95185.19;5036184;28;20564;-79
2021/09/29 10:13:30;;;;;;;20.63;16.08;;;21.00;70.70;;;21.08;53.23;95196.84;5039081;28;20188;-79
2021/09/29 10:27:13;;;;;;;21.50;14.80;;;20.90;70.80;;;20.78;54.49;95190.09;5036135;28;20721;-80
2021/09/29 10:29:56;;;;;;;20.33;16.38;;;20.80;70.90;;;20.76;54.56;95189.56;5048685;28;20246;-80
2021/09/29 10:32:26;;;;;;;19.27;15.18;;;20.80;70.90;;;20.73;54.04;95195.38;5032552;28;20257;-80
2021/09/29 10:40:16;;;;;;;21.63;16.10;;;20.70;70.90;;;20.57;54.19;95202.34;5058170;28;20204;-79
2021/09/29 10:46:39;;;;;;;17.55;13.98;;;20.60;71.00;;;20.31;55.08;95202.03;5051841;28;20269;-79
2021/09/29 11:05:49;;;;;;;12.00;9.52;;;20.10;71.10;;;19.73;55.72;95224.59;5036054;28;20322;-78
2021/09/29 11:30:35;;;;;;;6.85;6.15;;;19.40;72.00;;;19.28;55.94;95235.00;5049753;28;20196;-78
2021/09/29 11:33:09;;;;;;;6.10;5.50;;;19.40;71.90;;;19.26;56.29;95228.31;5058426;28;20249;-78
2021/09/29 12:08:59;;;;;;;4.43;4.03;;;19.10;72.80;;;18.99;57.50;95234.19;5052498;28;20211;-78
2021/09/29 12:11:29;;;;;;;5.30;4.20;;;19.10;73.00;;;19.07;57.61;95236.47;5051278;28;20265;-77
2021/09/29 12:16:37;;;;;;;4.28;3.67;;;19.10;73.20;;;19.23;57.10;95240.22;5063535;28;20303;-79
2021/09/29 12:19:11;;;;;;;4.32;3.92;;;19.20;73.40;;;19.26;57.37;95233.63;5023640;28;20206;-78
2021/09/29 12:21:53;;;;;;;4.00;3.60;;;19.20;73.40;;;19.35;57.47;95240.97;5068227;28;20863;-79
2021/09/29 12:24:46;;;;;;;3.95;3.55;;;19.30;73.50;;;19.34;56.79;95239.34;5035058;28;20194;-79
2021/09/29 12:30:34;;;;;;;4.88;4.30;;;19.40;73.10;;;19.32;57.31;95241.47;5052474;28;20211;-79
2021/09/29 12:33:21;;;;;;;4.15;3.75;;;19.40;73.20;;;19.35;57.33;95242.84;5051154;28;20184;-78